sensor_id;sensor_type;location;lat;lon;timestamp;P1;durP1;ratioP1;P2;durP2;ratioP2
1220;SDS011;600;48.044;7.878;2022-12-07T01:51:05;21.83;;;17.33;;
1220;SDS011;600;48.044;7.878;2022-12-07T01:53:37;24.65;;;18.10;;
1220;SDS011;600;48.044;7.878;2022-12-07T01:56:09;26.50;;;19.52;;
1220;SDS011;600;48.044;7.878;2022-12-07T01:58:38;25.00;;;18.77;;
1220;SDS011;600;48.044;7.878;2022-12-07T02:01:05;24.35;;;18.85;;
1220;SDS011;600;48.044;7.878;2022-12-07T02:03:34;23.17;;;18.70;;
1220;SDS011;600;48.044;7.878;2022-12-07T02:06:05;25.88;;;19.27;;
1220;SDS011;600;48.044;7.878;2022-12-07T02:08:34;25.48;;;18.45;;
1220;SDS011;600;48.044;7.878;2022-12-07T02:11:02;22.42;;;18.50;;
1220;SDS011;600;48.044;7.878;2022-12-07T02:13:31;25.48;;;20.30;;
1220;SDS011;600;48.044;7.878;2022-12-07T02:16:04;26.65;;;20.42;;
1220;SDS011;600;48.044;7.878;2022-12-07T02:18:53;26.35;;;21.13;;
1220;SDS011;600;48.044;7.878;2022-12-07T02:21:30;27.70;;;20.75;;
1220;SDS011;600;48.044;7.878;2022-12-07T02:24:18;25.08;;;19.80;;
1220;SDS011;600;48.044;7.878;2022-12-07T02:30:05;25.10;;;20.67;;
1220;SDS011;600;48.044;7.878;2022-12-07T02:32:38;25.60;;;20.08;;
1220;SDS011;600;48.044;7.878;2022-12-07T02:35:10;26.02;;;20.80;;
1220;SDS011;600;48.044;7.878;2022-12-07T02:37:42;26.83;;;21.05;;
1220;SDS011;600;48.044;7.878;2022-12-07T02:40:19;28.02;;;20.15;;
1220;SDS011;600;48.044;7.878;2022-12-07T02:42:52;27.35;;;20.50;;
1220;SDS011;600;48.044;7.878;2022-12-07T02:45:25;26.73;;;19.85;;
1220;SDS011;600;48.044;7.878;2022-12-07T02:47:55;26.42;;;20.33;;
1220;SDS011;600;48.044;7.878;2022-12-07T02:50:24;25.02;;;19.20;;
1220;SDS011;600;48.044;7.878;2022-12-07T02:52:52;24.05;;;19.45;;
1220;SDS011;600;48.044;7.878;2022-12-07T02:55:20;24.13;;;19.40;;
1220;SDS011;600;48.044;7.878;2022-12-07T02:57:54;22.20;;;17.73;;
1220;SDS011;600;48.044;7.878;2022-12-07T03:00:33;23.00;;;17.95;;
1220;SDS011;600;48.044;7.878;2022-12-07T03:03:10;21.75;;;16.95;;
1220;SDS011;600;48.044;7.878;2022-12-07T03:08:38;23.63;;;17.60;;
1220;SDS011;600;48.044;7.878;2022-12-07T03:11:12;18.88;;;15.15;;
1220;SDS011;600;48.044;7.878;2022-12-07T03:13:45;21.10;;;15.65;;
1220;SDS011;600;48.044;7.878;2022-12-07T03:16:18;21.20;;;16.80;;
1220;SDS011;600;48.044;7.878;2022-12-07T03:18:49;20.42;;;17.08;;
1220;SDS011;600;48.044;7.878;2022-12-07T03:21:20;20.08;;;16.00;;
1220;SDS011;600;48.044;7.878;2022-12-07T03:23:50;20.27;;;16.25;;
1220;SDS011;600;48.044;7.878;2022-12-07T03:26:19;25.45;;;17.27;;
1220;SDS011;600;48.044;7.878;2022-12-07T03:28:51;23.15;;;18.80;;
1220;SDS011;600;48.044;7.878;2022-12-07T03:31:23;22.08;;;16.52;;
1220;SDS011;600;48.044;7.878;2022-12-07T03:33:56;18.60;;;15.25;;
1220;SDS011;600;48.044;7.878;2022-12-07T03:36:27;19.17;;;15.85;;
1220;SDS011;600;48.044;7.878;2022-12-07T03:39:01;19.50;;;15.50;;
1220;SDS011;600;48.044;7.878;2022-12-07T03:41:35;19.02;;;15.88;;
1220;SDS011;600;48.044;7.878;2022-12-07T03:44:03;18.45;;;14.10;;
1220;SDS011;600;48.044;7.878;2022-12-07T03:46:34;19.65;;;16.35;;
1220;SDS011;600;48.044;7.878;2022-12-07T03:49:08;19.33;;;15.75;;
1220;SDS011;600;48.044;7.878;2022-12-07T03:51:42;19.65;;;16.42;;
1220;SDS011;600;48.044;7.878;2022-12-07T03:54:14;21.33;;;15.05;;
1220;SDS011;600;48.044;7.878;2022-12-07T03:56:45;20.65;;;16.00;;
1220;SDS011;600;48.044;7.878;2022-12-07T03:59:13;19.65;;;15.30;;
1220;SDS011;600;48.044;7.878;2022-12-07T04:01:43;16.98;;;13.60;;
1220;SDS011;600;48.044;7.878;2022-12-07T04:04:10;18.73;;;15.15;;
1220;SDS011;600;48.044;7.878;2022-12-07T04:06:37;18.25;;;14.43;;
1220;SDS011;600;48.044;7.878;2022-12-07T04:09:04;18.15;;;14.73;;
1220;SDS011;600;48.044;7.878;2022-12-07T04:11:31;18.10;;;14.95;;
1220;SDS011;600;48.044;7.878;2022-12-07T04:13:57;19.35;;;15.15;;
1220;SDS011;600;48.044;7.878;2022-12-07T04:16:43;18.98;;;14.35;;
1220;SDS011;600;48.044;7.878;2022-12-07T04:19:10;17.80;;;13.80;;
1220;SDS011;600;48.044;7.878;2022-12-07T04:21:37;16.55;;;13.80;;
1220;SDS011;600;48.044;7.878;2022-12-07T04:24:05;17.25;;;13.20;;
1220;SDS011;600;48.044;7.878;2022-12-07T04:26:32;15.38;;;12.80;;
1220;SDS011;600;48.044;7.878;2022-12-07T04:28:58;17.92;;;14.30;;
1220;SDS011;600;48.044;7.878;2022-12-07T04:31:25;15.38;;;12.98;;
1220;SDS011;600;48.044;7.878;2022-12-07T04:33:53;16.77;;;13.07;;
1220;SDS011;600;48.044;7.878;2022-12-07T04:36:20;18.70;;;14.15;;
1220;SDS011;600;48.044;7.878;2022-12-07T04:38:47;14.98;;;13.13;;
1220;SDS011;600;48.044;7.878;2022-12-07T04:41:13;15.70;;;12.90;;
1220;SDS011;600;48.044;7.878;2022-12-07T04:43:40;14.50;;;12.05;;
1220;SDS011;600;48.044;7.878;2022-12-07T04:46:07;16.35;;;12.70;;
1220;SDS011;600;48.044;7.878;2022-12-07T04:48:34;14.57;;;12.77;;
1220;SDS011;600;48.044;7.878;2022-12-07T04:51:03;15.57;;;12.55;;
1220;SDS011;600;48.044;7.878;2022-12-07T04:53:30;13.75;;;12.25;;
1220;SDS011;600;48.044;7.878;2022-12-07T04:55:57;15.63;;;12.88;;
1220;SDS011;600;48.044;7.878;2022-12-07T04:58:26;14.23;;;11.45;;
1220;SDS011;600;48.044;7.878;2022-12-07T05:00:53;15.70;;;11.48;;
1220;SDS011;600;48.044;7.878;2022-12-07T05:03:20;13.80;;;11.23;;
1220;SDS011;600;48.044;7.878;2022-12-07T05:05:47;12.75;;;10.40;;
1220;SDS011;600;48.044;7.878;2022-12-07T05:08:15;12.27;;;10.20;;
1220;SDS011;600;48.044;7.878;2022-12-07T05:10:42;13.18;;;9.88;;
1220;SDS011;600;48.044;7.878;2022-12-07T05:13:09;11.15;;;9.05;;
1220;SDS011;600;48.044;7.878;2022-12-07T05:15:36;11.00;;;9.77;;
1220;SDS011;600;48.044;7.878;2022-12-07T05:18:02;12.60;;;9.20;;
1220;SDS011;600;48.044;7.878;2022-12-07T05:20:29;9.95;;;8.90;;
1220;SDS011;600;48.044;7.878;2022-12-07T05:22:56;9.77;;;8.60;;
1220;SDS011;600;48.044;7.878;2022-12-07T05:25:25;12.10;;;8.93;;
1220;SDS011;600;48.044;7.878;2022-12-07T05:27:52;12.25;;;8.80;;
1220;SDS011;600;48.044;7.878;2022-12-07T05:30:18;9.98;;;8.98;;
1220;SDS011;600;48.044;7.878;2022-12-07T05:32:45;10.95;;;9.38;;
1220;SDS011;600;48.044;7.878;2022-12-07T05:35:12;9.30;;;8.25;;
1220;SDS011;600;48.044;7.878;2022-12-07T05:37:39;9.15;;;8.10;;
1220;SDS011;600;48.044;7.878;2022-12-07T05:40:06;10.60;;;9.07;;
1220;SDS011;600;48.044;7.878;2022-12-07T05:42:35;11.10;;;9.20;;
1220;SDS011;600;48.044;7.878;2022-12-07T05:45:01;11.98;;;10.60;;
1220;SDS011;600;48.044;7.878;2022-12-07T05:47:28;10.32;;;9.25;;
1220;SDS011;600;48.044;7.878;2022-12-07T05:49:55;12.23;;;9.75;;
1220;SDS011;600;48.044;7.878;2022-12-07T05:52:21;14.52;;;11.48;;
1220;SDS011;600;48.044;7.878;2022-12-07T05:54:48;12.05;;;10.00;;
1220;SDS011;600;48.044;7.878;2022-12-07T05:57:15;12.85;;;11.35;;
1220;SDS011;600;48.044;7.878;2022-12-07T05:59:43;10.93;;;9.80;;
1220;SDS011;600;48.044;7.878;2022-12-07T06:02:10;10.75;;;9.07;;
1220;SDS011;600;48.044;7.878;2022-12-07T06:04:38;10.20;;;9.07;;
1220;SDS011;600;48.044;7.878;2022-12-07T06:07:06;11.30;;;9.90;;
1220;SDS011;600;48.044;7.878;2022-12-07T06:09:34;11.85;;;9.48;;
1220;SDS011;600;48.044;7.878;2022-12-07T06:12:01;11.57;;;10.07;;
1220;SDS011;600;48.044;7.878;2022-12-07T06:14:47;11.00;;;9.82;;
1220;SDS011;600;48.044;7.878;2022-12-07T06:17:14;11.95;;;9.95;;
1220;SDS011;600;48.044;7.878;2022-12-07T06:19:41;11.65;;;10.52;;
1220;SDS011;600;48.044;7.878;2022-12-07T06:22:09;13.98;;;12.43;;
1220;SDS011;600;48.044;7.878;2022-12-07T06:24:36;11.68;;;10.40;;
1220;SDS011;600;48.044;7.878;2022-12-07T06:27:04;8.52;;;7.72;;
1220;SDS011;600;48.044;7.878;2022-12-07T06:29:31;9.00;;;8.10;;
1220;SDS011;600;48.044;7.878;2022-12-07T06:31:59;8.13;;;7.30;;
1220;SDS011;600;48.044;7.878;2022-12-07T06:34:26;8.05;;;6.60;;
1220;SDS011;600;48.044;7.878;2022-12-07T06:36:53;7.45;;;6.50;;
1220;SDS011;600;48.044;7.878;2022-12-07T06:39:21;8.57;;;7.68;;
1220;SDS011;600;48.044;7.878;2022-12-07T06:41:49;9.68;;;8.68;;
1220;SDS011;600;48.044;7.878;2022-12-07T06:44:17;12.70;;;9.85;;
1220;SDS011;600;48.044;7.878;2022-12-07T06:46:44;11.60;;;9.82;;
1220;SDS011;600;48.044;7.878;2022-12-07T06:49:12;10.95;;;9.07;;
1220;SDS011;600;48.044;7.878;2022-12-07T06:51:40;10.38;;;8.85;;
1220;SDS011;600;48.044;7.878;2022-12-07T06:54:07;8.82;;;7.90;;
1220;SDS011;600;48.044;7.878;2022-12-07T06:56:34;10.35;;;9.25;;
1220;SDS011;600;48.044;7.878;2022-12-07T06:59:01;9.70;;;8.65;;
1220;SDS011;600;48.044;7.878;2022-12-07T07:01:28;8.43;;;7.60;;
1220;SDS011;600;48.044;7.878;2022-12-07T07:03:55;9.23;;;8.32;;
1220;SDS011;600;48.044;7.878;2022-12-07T07:06:23;9.23;;;7.97;;
1220;SDS011;600;48.044;7.878;2022-12-07T07:08:51;8.82;;;7.85;;
1220;SDS011;600;48.044;7.878;2022-12-07T07:11:17;8.77;;;7.20;;
1220;SDS011;600;48.044;7.878;2022-12-07T07:13:44;9.07;;;7.32;;
1220;SDS011;600;48.044;7.878;2022-12-07T07:16:11;9.23;;;8.02;;
1220;SDS011;600;48.044;7.878;2022-12-07T07:18:38;7.90;;;7.10;;
1220;SDS011;600;48.044;7.878;2022-12-07T07:21:05;9.88;;;8.50;;
1220;SDS011;600;48.044;7.878;2022-12-07T07:23:33;8.88;;;7.95;;
1220;SDS011;600;48.044;7.878;2022-12-07T07:26:00;8.15;;;7.32;;
1220;SDS011;600;48.044;7.878;2022-12-07T07:28:27;7.40;;;6.65;;
1220;SDS011;600;48.044;7.878;2022-12-07T07:30:53;6.93;;;6.05;;
1220;SDS011;600;48.044;7.878;2022-12-07T07:33:20;7.85;;;6.13;;
1220;SDS011;600;48.044;7.878;2022-12-07T07:35:47;7.93;;;7.15;;
1220;SDS011;600;48.044;7.878;2022-12-07T07:38:14;7.13;;;6.53;;
1220;SDS011;600;48.044;7.878;2022-12-07T07:40:42;7.30;;;6.60;;
1220;SDS011;600;48.044;7.878;2022-12-07T07:43:08;9.80;;;8.85;;
1220;SDS011;600;48.044;7.878;2022-12-07T07:45:35;10.05;;;9.00;;
1220;SDS011;600;48.044;7.878;2022-12-07T07:48:02;7.85;;;7.13;;
1220;SDS011;600;48.044;7.878;2022-12-07T07:50:29;6.93;;;6.22;;
1220;SDS011;600;48.044;7.878;2022-12-07T07:52:56;8.10;;;6.90;;
1220;SDS011;600;48.044;7.878;2022-12-07T07:55:23;9.23;;;7.32;;
1220;SDS011;600;48.044;7.878;2022-12-07T07:57:51;8.88;;;7.97;;
1220;SDS011;600;48.044;7.878;2022-12-07T08:00:18;8.00;;;7.20;;
1220;SDS011;600;48.044;7.878;2022-12-07T08:02:45;8.85;;;7.03;;
1220;SDS011;600;48.044;7.878;2022-12-07T08:05:12;9.20;;;8.30;;
1220;SDS011;600;48.044;7.878;2022-12-07T08:07:39;9.70;;;8.20;;
1220;SDS011;600;48.044;7.878;2022-12-07T08:10:07;7.35;;;6.63;;
1220;SDS011;600;48.044;7.878;2022-12-07T08:12:35;7.45;;;6.50;;
1220;SDS011;600;48.044;7.878;2022-12-07T08:15:25;7.97;;;6.85;;
1220;SDS011;600;48.044;7.878;2022-12-07T08:17:53;6.03;;;5.45;;
1220;SDS011;600;48.044;7.878;2022-12-07T08:20:19;7.00;;;6.30;;
1220;SDS011;600;48.044;7.878;2022-12-07T08:22:46;6.82;;;6.07;;
1220;SDS011;600;48.044;7.878;2022-12-07T08:25:13;7.22;;;6.30;;
1220;SDS011;600;48.044;7.878;2022-12-07T08:27:40;7.10;;;6.40;;
1220;SDS011;600;48.044;7.878;2022-12-07T08:30:07;7.18;;;6.47;;
1220;SDS011;600;48.044;7.878;2022-12-07T08:32:36;5.82;;;5.32;;
1220;SDS011;600;48.044;7.878;2022-12-07T08:35:03;5.35;;;4.85;;
1220;SDS011;600;48.044;7.878;2022-12-07T08:37:30;7.32;;;6.13;;
1220;SDS011;600;48.044;7.878;2022-12-07T08:39:57;6.30;;;5.70;;
1220;SDS011;600;48.044;7.878;2022-12-07T08:42:24;7.00;;;6.40;;
1220;SDS011;600;48.044;7.878;2022-12-07T08:44:54;6.03;;;5.53;;
1220;SDS011;600;48.044;7.878;2022-12-07T08:47:21;6.00;;;5.50;;
1220;SDS011;600;48.044;7.878;2022-12-07T08:49:50;7.00;;;6.30;;
1220;SDS011;600;48.044;7.878;2022-12-07T08:52:19;7.80;;;7.00;;
1220;SDS011;600;48.044;7.878;2022-12-07T08:54:45;7.65;;;6.85;;
1220;SDS011;600;48.044;7.878;2022-12-07T08:57:13;8.65;;;7.65;;
1220;SDS011;600;48.044;7.878;2022-12-07T08:59:39;7.97;;;7.03;;
1220;SDS011;600;48.044;7.878;2022-12-07T09:02:06;12.57;;;11.25;;
1220;SDS011;600;48.044;7.878;2022-12-07T09:04:33;10.00;;;9.00;;
1220;SDS011;600;48.044;7.878;2022-12-07T09:07:01;8.00;;;7.22;;
1220;SDS011;600;48.044;7.878;2022-12-07T09:09:29;6.10;;;5.60;;
1220;SDS011;600;48.044;7.878;2022-12-07T09:11:55;5.25;;;4.85;;
1220;SDS011;600;48.044;7.878;2022-12-07T09:14:22;5.18;;;4.68;;
1220;SDS011;600;48.044;7.878;2022-12-07T09:16:49;4.90;;;4.50;;
1220;SDS011;600;48.044;7.878;2022-12-07T09:19:16;5.35;;;4.85;;
1220;SDS011;600;48.044;7.878;2022-12-07T09:21:43;6.40;;;5.80;;
1220;SDS011;600;48.044;7.878;2022-12-07T09:24:12;8.10;;;6.72;;
1220;SDS011;600;48.044;7.878;2022-12-07T09:26:39;7.00;;;6.30;;
1220;SDS011;600;48.044;7.878;2022-12-07T09:29:06;7.28;;;6.57;;
1220;SDS011;600;48.044;7.878;2022-12-07T09:31:36;6.30;;;5.70;;
1220;SDS011;600;48.044;7.878;2022-12-07T09:34:06;7.43;;;6.35;;
1220;SDS011;600;48.044;7.878;2022-12-07T09:36:33;8.65;;;7.85;;
1220;SDS011;600;48.044;7.878;2022-12-07T09:39:00;7.70;;;6.95;;
1220;SDS011;600;48.044;7.878;2022-12-07T09:41:29;7.53;;;6.78;;
1220;SDS011;600;48.044;7.878;2022-12-07T09:43:58;6.75;;;6.10;;
1220;SDS011;600;48.044;7.878;2022-12-07T09:46:30;6.55;;;5.85;;
1220;SDS011;600;48.044;7.878;2022-12-07T09:49:01;6.88;;;6.15;;
1220;SDS011;600;48.044;7.878;2022-12-07T09:51:28;9.15;;;6.05;;
1220;SDS011;600;48.044;7.878;2022-12-07T09:53:56;6.75;;;6.05;;
1220;SDS011;600;48.044;7.878;2022-12-07T09:56:25;7.35;;;6.55;;
1220;SDS011;600;48.044;7.878;2022-12-07T09:58:58;7.30;;;6.60;;
1220;SDS011;600;48.044;7.878;2022-12-07T10:01:27;7.85;;;6.38;;
1220;SDS011;600;48.044;7.878;2022-12-07T10:03:58;5.82;;;5.32;;
1220;SDS011;600;48.044;7.878;2022-12-07T10:06:27;7.60;;;6.82;;
1220;SDS011;600;48.044;7.878;2022-12-07T10:08:54;8.60;;;6.95;;
1220;SDS011;600;48.044;7.878;2022-12-07T10:11:21;7.95;;;6.43;;
1220;SDS011;600;48.044;7.878;2022-12-07T10:13:48;9.05;;;7.10;;
1220;SDS011;600;48.044;7.878;2022-12-07T10:19:18;8.25;;;7.43;;
1220;SDS011;600;48.044;7.878;2022-12-07T10:21:59;8.48;;;7.68;;
1220;SDS011;600;48.044;7.878;2022-12-07T10:24:31;6.18;;;5.57;;
1220;SDS011;600;48.044;7.878;2022-12-07T10:26:58;6.82;;;6.07;;
1220;SDS011;600;48.044;7.878;2022-12-07T10:29:28;6.30;;;5.70;;
1220;SDS011;600;48.044;7.878;2022-12-07T10:31:58;6.68;;;6.03;;
1220;SDS011;600;48.044;7.878;2022-12-07T10:34:27;6.93;;;5.93;;
1220;SDS011;600;48.044;7.878;2022-12-07T10:37:07;7.15;;;6.50;;
1220;SDS011;600;48.044;7.878;2022-12-07T10:39:41;6.72;;;6.10;;
1220;SDS011;600;48.044;7.878;2022-12-07T10:42:15;6.90;;;5.90;;
1220;SDS011;600;48.044;7.878;2022-12-07T10:44:44;6.65;;;6.00;;
1220;SDS011;600;48.044;7.878;2022-12-07T10:47:20;7.47;;;6.47;;
1220;SDS011;600;48.044;7.878;2022-12-07T10:50:08;8.35;;;6.70;;
1220;SDS011;600;48.044;7.878;2022-12-07T10:53:13;7.70;;;6.90;;
1220;SDS011;600;48.044;7.878;2022-12-07T10:55:53;8.15;;;7.35;;
1220;SDS011;600;48.044;7.878;2022-12-07T10:58:43;8.43;;;7.05;;
1220;SDS011;600;48.044;7.878;2022-12-07T11:01:21;9.38;;;7.70;;
1220;SDS011;600;48.044;7.878;2022-12-07T11:04:00;8.68;;;7.40;;
1220;SDS011;600;48.044;7.878;2022-12-07T11:06:41;7.47;;;5.80;;
1220;SDS011;600;48.044;7.878;2022-12-07T11:09:23;6.10;;;5.50;;
1220;SDS011;600;48.044;7.878;2022-12-07T11:12:02;6.20;;;5.60;;
1220;SDS011;600;48.044;7.878;2022-12-07T11:14:40;5.88;;;5.20;;
1220;SDS011;600;48.044;7.878;2022-12-07T11:17:16;5.68;;;4.95;;
1220;SDS011;600;48.044;7.878;2022-12-07T11:19:49;5.30;;;4.85;;
1220;SDS011;600;48.044;7.878;2022-12-07T11:22:29;5.30;;;4.80;;
1220;SDS011;600;48.044;7.878;2022-12-07T11:25:14;4.60;;;4.20;;
1220;SDS011;600;48.044;7.878;2022-12-07T11:27:52;5.68;;;5.07;;
1220;SDS011;600;48.044;7.878;2022-12-07T11:30:33;4.97;;;4.57;;
1220;SDS011;600;48.044;7.878;2022-12-07T11:33:10;4.65;;;4.25;;
1220;SDS011;600;48.044;7.878;2022-12-07T11:35:47;4.30;;;3.90;;
1220;SDS011;600;48.044;7.878;2022-12-07T11:38:24;6.30;;;4.85;;
1220;SDS011;600;48.044;7.878;2022-12-07T11:41:03;5.18;;;3.72;;
1220;SDS011;600;48.044;7.878;2022-12-07T11:43:41;6.10;;;3.70;;
1220;SDS011;600;48.044;7.878;2022-12-07T11:46:18;5.30;;;3.90;;
1220;SDS011;600;48.044;7.878;2022-12-07T11:48:50;4.45;;;4.05;;
1220;SDS011;600;48.044;7.878;2022-12-07T11:51:23;6.03;;;5.43;;
1220;SDS011;600;48.044;7.878;2022-12-07T11:53:52;5.20;;;4.70;;
1220;SDS011;600;48.044;7.878;2022-12-07T11:56:24;5.00;;;4.60;;
1220;SDS011;600;48.044;7.878;2022-12-07T11:58:54;5.85;;;5.35;;
1220;SDS011;600;48.044;7.878;2022-12-07T12:01:32;5.40;;;4.90;;
1220;SDS011;600;48.044;7.878;2022-12-07T12:04:13;9.30;;;5.37;;
1220;SDS011;600;48.044;7.878;2022-12-07T12:06:52;5.40;;;4.90;;
1220;SDS011;600;48.044;7.878;2022-12-07T12:09:21;8.50;;;5.20;;
1220;SDS011;600;48.044;7.878;2022-12-07T12:11:56;5.28;;;4.85;;
1220;SDS011;600;48.044;7.878;2022-12-07T12:14:37;5.28;;;4.78;;
1220;SDS011;600;48.044;7.878;2022-12-07T12:20:28;5.47;;;5.07;;
1220;SDS011;600;48.044;7.878;2022-12-07T12:23:00;5.93;;;5.43;;
1220;SDS011;600;48.044;7.878;2022-12-07T12:25:35;6.43;;;5.77;;
1220;SDS011;600;48.044;7.878;2022-12-07T12:28:05;7.23;;;6.53;;
1220;SDS011;600;48.044;7.878;2022-12-07T12:30:45;7.27;;;5.27;;
1220;SDS011;600;48.044;7.878;2022-12-07T12:33:29;7.50;;;6.40;;
1220;SDS011;600;48.044;7.878;2022-12-07T12:38:49;6.95;;;5.70;;
1220;SDS011;600;48.044;7.878;2022-12-07T12:44:40;9.90;;;7.93;;
1220;SDS011;600;48.044;7.878;2022-12-07T12:47:42;7.80;;;7.00;;
1220;SDS011;600;48.044;7.878;2022-12-07T12:50:31;9.37;;;7.30;;
1220;SDS011;600;48.044;7.878;2022-12-07T12:53:00;7.45;;;6.72;;
1220;SDS011;600;48.044;7.878;2022-12-07T12:58:39;6.03;;;5.43;;
1220;SDS011;600;48.044;7.878;2022-12-07T13:07:03;4.90;;;4.47;;
1220;SDS011;600;48.044;7.878;2022-12-07T13:09:31;6.43;;;5.70;;
1220;SDS011;600;48.044;7.878;2022-12-07T13:12:03;6.70;;;5.60;;
1220;SDS011;600;48.044;7.878;2022-12-07T13:14:41;5.90;;;4.97;;
1220;SDS011;600;48.044;7.878;2022-12-07T13:23:25;6.47;;;5.87;;
1220;SDS011;600;48.044;7.878;2022-12-07T13:25:57;5.67;;;5.23;;
1220;SDS011;600;48.044;7.878;2022-12-07T13:28:37;6.83;;;6.13;;
1220;SDS011;600;48.044;7.878;2022-12-07T13:31:14;7.20;;;6.20;;
1220;SDS011;600;48.044;7.878;2022-12-07T13:33:57;6.93;;;6.23;;
1220;SDS011;600;48.044;7.878;2022-12-07T13:36:25;6.97;;;6.27;;
1220;SDS011;600;48.044;7.878;2022-12-07T13:38:55;7.10;;;6.40;;
1220;SDS011;600;48.044;7.878;2022-12-07T13:41:23;7.13;;;6.43;;
1220;SDS011;600;48.044;7.878;2022-12-07T13:43:55;7.90;;;6.85;;
1220;SDS011;600;48.044;7.878;2022-12-07T13:46:32;7.05;;;6.07;;
1220;SDS011;600;48.044;7.878;2022-12-07T13:49:15;6.35;;;5.75;;
1220;SDS011;600;48.044;7.878;2022-12-07T13:51:46;6.97;;;6.37;;
1220;SDS011;600;48.044;7.878;2022-12-07T13:54:14;6.80;;;6.10;;
1220;SDS011;600;48.044;7.878;2022-12-07T13:56:41;6.57;;;5.97;;
1220;SDS011;600;48.044;7.878;2022-12-07T13:59:12;6.30;;;5.70;;
1220;SDS011;600;48.044;7.878;2022-12-07T14:01:41;6.87;;;6.17;;
1220;SDS011;600;48.044;7.878;2022-12-07T14:04:18;7.50;;;6.00;;
1220;SDS011;600;48.044;7.878;2022-12-07T14:06:53;5.80;;;4.95;;
1220;SDS011;600;48.044;7.878;2022-12-07T14:09:21;5.70;;;5.20;;
1220;SDS011;600;48.044;7.878;2022-12-07T14:11:49;5.30;;;4.80;;
1220;SDS011;600;48.044;7.878;2022-12-07T14:14:20;4.70;;;4.30;;
1220;SDS011;600;48.044;7.878;2022-12-07T14:16:55;3.97;;;3.67;;
1220;SDS011;600;48.044;7.878;2022-12-07T14:22:23;4.40;;;4.00;;
1220;SDS011;600;48.044;7.878;2022-12-07T14:24:58;4.10;;;3.70;;
1220;SDS011;600;48.044;7.878;2022-12-07T14:27:47;3.90;;;3.60;;
1220;SDS011;600;48.044;7.878;2022-12-07T14:30:17;4.40;;;4.10;;
1220;SDS011;600;48.044;7.878;2022-12-07T14:32:51;5.22;;;4.72;;
1220;SDS011;600;48.044;7.878;2022-12-07T14:35:20;6.07;;;5.30;;
1220;SDS011;600;48.044;7.878;2022-12-07T14:37:47;6.43;;;5.18;;
1220;SDS011;600;48.044;7.878;2022-12-07T14:40:16;6.65;;;6.00;;
1220;SDS011;600;48.044;7.878;2022-12-07T14:42:44;6.63;;;6.03;;
1220;SDS011;600;48.044;7.878;2022-12-07T14:45:13;6.70;;;6.00;;
1220;SDS011;600;48.044;7.878;2022-12-07T14:47:43;6.40;;;5.80;;
1220;SDS011;600;48.044;7.878;2022-12-07T14:50:11;7.97;;;6.55;;
1220;SDS011;600;48.044;7.878;2022-12-07T14:52:39;6.60;;;5.88;;
1220;SDS011;600;48.044;7.878;2022-12-07T14:55:12;7.18;;;6.47;;
1220;SDS011;600;48.044;7.878;2022-12-07T14:57:40;6.70;;;6.00;;
1220;SDS011;600;48.044;7.878;2022-12-07T15:00:08;7.10;;;6.40;;
1220;SDS011;600;48.044;7.878;2022-12-07T15:02:39;7.00;;;5.85;;
1220;SDS011;600;48.044;7.878;2022-12-07T15:05:07;7.50;;;6.57;;
1220;SDS011;600;48.044;7.878;2022-12-07T15:07:34;8.68;;;7.78;;
1220;SDS011;600;48.044;7.878;2022-12-07T15:10:01;8.98;;;7.05;;
1220;SDS011;600;48.044;7.878;2022-12-07T15:12:29;7.20;;;6.50;;
1220;SDS011;600;48.044;7.878;2022-12-07T15:14:56;8.77;;;6.72;;
1220;SDS011;600;48.044;7.878;2022-12-07T15:17:23;8.90;;;7.18;;
1220;SDS011;600;48.044;7.878;2022-12-07T15:19:49;7.57;;;6.07;;
1220;SDS011;600;48.044;7.878;2022-12-07T15:22:17;7.63;;;6.00;;
1220;SDS011;600;48.044;7.878;2022-12-07T15:24:44;6.90;;;6.20;;
1220;SDS011;600;48.044;7.878;2022-12-07T15:27:11;7.00;;;6.07;;
1220;SDS011;600;48.044;7.878;2022-12-07T15:29:38;8.02;;;6.68;;
1220;SDS011;600;48.044;7.878;2022-12-07T15:32:05;9.20;;;6.80;;
1220;SDS011;600;48.044;7.878;2022-12-07T15:34:31;7.50;;;6.75;;
1220;SDS011;600;48.044;7.878;2022-12-07T15:36:59;7.80;;;7.00;;
1220;SDS011;600;48.044;7.878;2022-12-07T15:39:27;7.15;;;6.45;;
1220;SDS011;600;48.044;7.878;2022-12-07T15:41:54;7.95;;;6.40;;
1220;SDS011;600;48.044;7.878;2022-12-07T15:44:20;6.70;;;6.10;;
1220;SDS011;600;48.044;7.878;2022-12-07T15:47:04;6.40;;;5.65;;
1220;SDS011;600;48.044;7.878;2022-12-07T15:49:31;6.63;;;5.97;;
1220;SDS011;600;48.044;7.878;2022-12-07T15:51:58;6.35;;;4.85;;
1220;SDS011;600;48.044;7.878;2022-12-07T15:54:25;6.20;;;5.15;;
1220;SDS011;600;48.044;7.878;2022-12-07T15:56:54;6.18;;;5.53;;
1220;SDS011;600;48.044;7.878;2022-12-07T15:59:22;7.45;;;5.57;;
1220;SDS011;600;48.044;7.878;2022-12-07T16:01:49;5.72;;;5.00;;
1220;SDS011;600;48.044;7.878;2022-12-07T16:04:16;8.70;;;6.57;;
1220;SDS011;600;48.044;7.878;2022-12-07T16:06:43;6.38;;;5.57;;
1220;SDS011;600;48.044;7.878;2022-12-07T16:09:10;8.57;;;5.40;;
1220;SDS011;600;48.044;7.878;2022-12-07T16:11:38;5.75;;;5.22;;
1220;SDS011;600;48.044;7.878;2022-12-07T16:14:05;5.57;;;4.93;;
1220;SDS011;600;48.044;7.878;2022-12-07T16:16:32;6.70;;;5.72;;
1220;SDS011;600;48.044;7.878;2022-12-07T16:18:58;6.15;;;5.55;;
1220;SDS011;600;48.044;7.878;2022-12-07T16:21:25;5.88;;;5.30;;
1220;SDS011;600;48.044;7.878;2022-12-07T16:23:52;6.53;;;5.90;;
1220;SDS011;600;48.044;7.878;2022-12-07T16:26:19;8.57;;;6.88;;
1220;SDS011;600;48.044;7.878;2022-12-07T16:28:49;7.40;;;6.55;;
1220;SDS011;600;48.044;7.878;2022-12-07T16:31:17;7.70;;;6.07;;
1220;SDS011;600;48.044;7.878;2022-12-07T16:33:45;9.98;;;8.10;;
1220;SDS011;600;48.044;7.878;2022-12-07T16:36:13;15.65;;;11.18;;
1220;SDS011;600;48.044;7.878;2022-12-07T16:38:41;18.65;;;11.38;;
1220;SDS011;600;48.044;7.878;2022-12-07T16:41:08;97.90;;;43.10;;
1220;SDS011;600;48.044;7.878;2022-12-07T16:43:36;78.55;;;38.83;;
1220;SDS011;600;48.044;7.878;2022-12-07T16:46:04;43.10;;;23.40;;
1220;SDS011;600;48.044;7.878;2022-12-07T16:48:35;52.72;;;24.02;;
1220;SDS011;600;48.044;7.878;2022-12-07T16:51:03;194.45;;;78.05;;
1220;SDS011;600;48.044;7.878;2022-12-07T16:53:31;250.38;;;100.13;;
1220;SDS011;600;48.044;7.878;2022-12-07T16:55:57;78.63;;;38.78;;
1220;SDS011;600;48.044;7.878;2022-12-07T16:58:24;66.35;;;33.00;;
1220;SDS011;600;48.044;7.878;2022-12-07T17:00:51;72.13;;;40.08;;
1220;SDS011;600;48.044;7.878;2022-12-07T17:03:19;31.95;;;19.27;;
1220;SDS011;600;48.044;7.878;2022-12-07T17:05:46;23.38;;;15.45;;
1220;SDS011;600;48.044;7.878;2022-12-07T17:08:14;16.98;;;12.73;;
1220;SDS011;600;48.044;7.878;2022-12-07T17:10:42;20.58;;;14.50;;
1220;SDS011;600;48.044;7.878;2022-12-07T17:13:10;27.45;;;20.10;;
1220;SDS011;600;48.044;7.878;2022-12-07T17:15:56;25.13;;;19.02;;
1220;SDS011;600;48.044;7.878;2022-12-07T17:18:25;22.35;;;13.18;;
1220;SDS011;600;48.044;7.878;2022-12-07T17:20:53;11.48;;;8.18;;
1220;SDS011;600;48.044;7.878;2022-12-07T17:23:20;10.38;;;6.88;;
1220;SDS011;600;48.044;7.878;2022-12-07T17:25:47;7.80;;;7.00;;
1220;SDS011;600;48.044;7.878;2022-12-07T17:28:13;8.40;;;7.57;;
1220;SDS011;600;48.044;7.878;2022-12-07T17:30:40;7.07;;;6.05;;
1220;SDS011;600;48.044;7.878;2022-12-07T17:33:07;5.40;;;4.90;;
1220;SDS011;600;48.044;7.878;2022-12-07T17:35:35;6.47;;;5.47;;
1220;SDS011;600;48.044;7.878;2022-12-07T17:38:02;7.40;;;5.90;;
1220;SDS011;600;48.044;7.878;2022-12-07T17:40:29;6.60;;;5.70;;
1220;SDS011;600;48.044;7.878;2022-12-07T17:42:55;7.43;;;5.53;;
1220;SDS011;600;48.044;7.878;2022-12-07T17:45:23;7.32;;;5.22;;
1220;SDS011;600;48.044;7.878;2022-12-07T17:47:50;6.00;;;4.57;;
1220;SDS011;600;48.044;7.878;2022-12-07T17:50:18;5.22;;;4.72;;
1220;SDS011;600;48.044;7.878;2022-12-07T17:53:07;6.30;;;5.70;;
1220;SDS011;600;48.044;7.878;2022-12-07T17:55:34;8.00;;;5.65;;
1220;SDS011;600;48.044;7.878;2022-12-07T17:58:01;7.40;;;5.60;;
1220;SDS011;600;48.044;7.878;2022-12-07T18:00:28;8.05;;;7.25;;
1220;SDS011;600;48.044;7.878;2022-12-07T18:02:55;9.20;;;8.20;;
1220;SDS011;600;48.044;7.878;2022-12-07T18:05:21;7.78;;;6.85;;